DLH864 EDDF-ENGM
Flight info
| Callsign | DLH864 |
|---|---|
| Flight time | N/A |
| Altitude | 37000 |
| Route | MARUN3W/25C MARUN Y150 TOLGI DCT ALASA DCT INVOL DCT SABAK L997 LUNIP |
| Aircraft | A320/M-SDE2E3FGIJ1LORWXYZ/HB1 |
Departure
| Time | N/A |
|---|---|
| Airport | Frankfurt Main Airport (EDDF) |
Arrival
| Time | 2026-05-07 14:01 |
|---|---|
| Airport | Oslo-Gardermoen International Airport (ENGM) |
| Time | Latitude | Longitude | Altitude | Speed | Heading |
|---|---|---|---|---|---|
| 2026-05-07 13:25 | 57.31930 | 11.06273 | 37135 ft | 438 kts | 11° |
| 2026-05-07 13:25 | 57.37843 | 11.09032 | 37133 ft | 438 kts | 11° |
| 2026-05-07 13:26 | 57.43743 | 11.11812 | 37151 ft | 438 kts | 11° |
| 2026-05-07 13:26 | 57.49658 | 11.14616 | 37135 ft | 439 kts | 11° |
| 2026-05-07 13:27 | 57.55580 | 11.17428 | 37128 ft | 439 kts | 11° |
| 2026-05-07 13:27 | 57.61466 | 11.20244 | 37125 ft | 439 kts | 11° |
| 2026-05-07 13:28 | 57.67320 | 11.23617 | 37126 ft | 443 kts | 19° |
| 2026-05-07 13:28 | 57.72041 | 11.27378 | 37142 ft | 444 kts | 19° |
| 2026-05-07 13:29 | 57.77725 | 11.31928 | 37114 ft | 445 kts | 19° |
| 2026-05-07 13:29 | 57.83423 | 11.36495 | 37125 ft | 445 kts | 19° |
| 2026-05-07 13:30 | 57.89137 | 11.41087 | 37109 ft | 446 kts | 19° |
| 2026-05-07 13:30 | 57.94830 | 11.45673 | 37125 ft | 446 kts | 19° |
| 2026-05-07 13:31 | 58.00539 | 11.50306 | 37135 ft | 446 kts | 19° |
| 2026-05-07 13:31 | 58.06216 | 11.54927 | 37124 ft | 447 kts | 19° |
| 2026-05-07 13:32 | 58.11917 | 11.59590 | 37129 ft | 447 kts | 19° |
| 2026-05-07 13:32 | 58.17809 | 11.62786 | 37111 ft | 436 kts | 1° |
| 2026-05-07 13:33 | 58.23787 | 11.62383 | 37110 ft | 426 kts | 346° |
| 2026-05-07 13:33 | 58.29642 | 11.60571 | 37098 ft | 426 kts | 346° |
| 2026-05-07 13:34 | 58.38444 | 11.57872 | 37101 ft | 427 kts | 346° |
| 2026-05-07 13:35 | 58.44315 | 11.56044 | 37104 ft | 427 kts | 346° |
| 2026-05-07 13:35 | 58.50179 | 11.54218 | 37119 ft | 427 kts | 346° |
| 2026-05-07 13:36 | 58.56008 | 11.52397 | 37134 ft | 428 kts | 346° |
| 2026-05-07 13:36 | 58.58967 | 11.51468 | 36856 ft | 429 kts | 346° |
| 2026-05-07 13:36 | 58.61912 | 11.50545 | 36279 ft | 428 kts | 346° |
| 2026-05-07 13:36 | 58.64834 | 11.49631 | 35760 ft | 424 kts | 346° |
| 2026-05-07 13:37 | 58.67729 | 11.48724 | 35258 ft | 420 kts | 346° |
| 2026-05-07 13:37 | 58.70600 | 11.47827 | 34744 ft | 417 kts | 345° |
| 2026-05-07 13:37 | 58.73458 | 11.46931 | 34206 ft | 414 kts | 345° |
| 2026-05-07 13:37 | 58.76296 | 11.46033 | 33619 ft | 411 kts | 345° |
| 2026-05-07 13:38 | 58.79093 | 11.45144 | 33099 ft | 406 kts | 345° |
| 2026-05-07 13:38 | 58.81866 | 11.44256 | 32602 ft | 401 kts | 344° |
| 2026-05-07 13:38 | 58.84612 | 11.43377 | 32076 ft | 398 kts | 344° |
| 2026-05-07 13:38 | 58.87335 | 11.42508 | 31571 ft | 395 kts | 344° |
| 2026-05-07 13:39 | 58.90005 | 11.41660 | 31080 ft | 391 kts | 344° |
| 2026-05-07 13:39 | 58.92686 | 11.40811 | 30595 ft | 388 kts | 344° |
| 2026-05-07 13:39 | 58.95341 | 11.39972 | 30119 ft | 384 kts | 344° |
| 2026-05-07 13:39 | 58.97968 | 11.39136 | 29620 ft | 380 kts | 344° |
| 2026-05-07 13:40 | 59.00558 | 11.38305 | 29168 ft | 374 kts | 344° |
| 2026-05-07 13:40 | 59.03107 | 11.37486 | 28739 ft | 369 kts | 344° |
| 2026-05-07 13:40 | 59.05628 | 11.36678 | 28316 ft | 363 kts | 344° |
| 2026-05-07 13:40 | 59.08107 | 11.35880 | 27895 ft | 359 kts | 344° |
| 2026-05-07 13:41 | 59.10544 | 11.35090 | 27512 ft | 354 kts | 343° |
| 2026-05-07 13:41 | 59.12947 | 11.34197 | 27059 ft | 349 kts | 341° |
| 2026-05-07 13:41 | 59.15304 | 11.33160 | 26624 ft | 345 kts | 341° |
| 2026-05-07 13:41 | 59.17695 | 11.32513 | 26192 ft | 349 kts | 351° |
| 2026-05-07 13:42 | 59.20104 | 11.32793 | 25757 ft | 356 kts | 3° |
| 2026-05-07 13:42 | 59.22526 | 11.34075 | 25286 ft | 361 kts | 11° |
| 2026-05-07 13:42 | 59.24916 | 11.35589 | 24812 ft | 361 kts | 11° |
| 2026-05-07 13:42 | 59.27290 | 11.37106 | 24338 ft | 361 kts | 11° |
| 2026-05-07 13:43 | 59.29677 | 11.38632 | 23842 ft | 361 kts | 11° |
| 2026-05-07 13:43 | 59.32059 | 11.40151 | 23305 ft | 360 kts | 11° |
| 2026-05-07 13:43 | 59.34437 | 11.41663 | 22817 ft | 358 kts | 11° |
| 2026-05-07 13:43 | 59.36804 | 11.43166 | 22341 ft | 356 kts | 11° |
| 2026-05-07 13:44 | 59.39166 | 11.44301 | 22150 ft | 338 kts | 358° |
| 2026-05-07 13:44 | 59.41440 | 11.44368 | 22073 ft | 320 kts | 352° |
| 2026-05-07 13:44 | 59.43631 | 11.44314 | 21993 ft | 308 kts | 351° |
| 2026-05-07 13:44 | 59.45736 | 11.44244 | 21914 ft | 307 kts | 351° |
| 2026-05-07 13:45 | 59.47872 | 11.44156 | 21843 ft | 307 kts | 351° |
| 2026-05-07 13:45 | 59.50012 | 11.44064 | 21771 ft | 307 kts | 351° |
| 2026-05-07 13:45 | 59.52152 | 11.43975 | 21703 ft | 308 kts | 351° |
| 2026-05-07 13:45 | 59.54370 | 11.43867 | 21451 ft | 326 kts | 352° |
| 2026-05-07 13:46 | 59.56652 | 11.43762 | 21185 ft | 330 kts | 352° |
| 2026-05-07 13:46 | 59.58945 | 11.43671 | 20924 ft | 330 kts | 352° |
| 2026-05-07 13:46 | 59.61249 | 11.43586 | 20664 ft | 329 kts | 352° |
| 2026-05-07 13:46 | 59.63537 | 11.43500 | 20326 ft | 328 kts | 352° |
| 2026-05-07 13:47 | 59.65821 | 11.43410 | 19902 ft | 327 kts | 352° |
| 2026-05-07 13:47 | 59.68071 | 11.43319 | 19515 ft | 327 kts | 352° |
| 2026-05-07 13:47 | 59.70369 | 11.43227 | 19087 ft | 326 kts | 352° |
| 2026-05-07 13:47 | 59.72606 | 11.43139 | 18652 ft | 326 kts | 352° |
| 2026-05-07 13:48 | 59.74874 | 11.43050 | 18195 ft | 327 kts | 353° |
| 2026-05-07 13:48 | 59.77151 | 11.42958 | 17693 ft | 327 kts | 353° |
| 2026-05-07 13:48 | 59.79433 | 11.42863 | 17198 ft | 328 kts | 353° |
| 2026-05-07 13:48 | 59.81715 | 11.42770 | 16720 ft | 328 kts | 353° |
| 2026-05-07 13:49 | 59.83996 | 11.42677 | 16231 ft | 329 kts | 354° |
| 2026-05-07 13:49 | 59.86289 | 11.42587 | 15756 ft | 329 kts | 354° |
| 2026-05-07 13:49 | 59.88588 | 11.42495 | 15295 ft | 330 kts | 354° |
| 2026-05-07 13:49 | 59.90877 | 11.42401 | 14837 ft | 330 kts | 354° |
| 2026-05-07 13:50 | 59.93174 | 11.42306 | 14391 ft | 330 kts | 355° |
| 2026-05-07 13:50 | 59.95471 | 11.42210 | 13947 ft | 330 kts | 355° |
| 2026-05-07 13:50 | 59.97775 | 11.42117 | 13438 ft | 330 kts | 355° |
| 2026-05-07 13:50 | 60.00072 | 11.42026 | 12881 ft | 331 kts | 355° |
| 2026-05-07 13:51 | 60.02377 | 11.41933 | 12344 ft | 330 kts | 355° |
| 2026-05-07 13:51 | 60.04644 | 11.41839 | 11825 ft | 330 kts | 356° |
| 2026-05-07 13:51 | 60.06940 | 11.41743 | 11303 ft | 329 kts | 356° |
| 2026-05-07 13:51 | 60.09228 | 11.41647 | 10791 ft | 328 kts | 356° |
| 2026-05-07 13:52 | 60.11513 | 11.41551 | 10315 ft | 326 kts | 356° |
| 2026-05-07 13:52 | 60.13762 | 11.41461 | 9933 ft | 321 kts | 357° |
| 2026-05-07 13:52 | 60.15988 | 11.41372 | 9513 ft | 317 kts | 357° |
| 2026-05-07 13:52 | 60.18173 | 11.41287 | 9106 ft | 313 kts | 357° |
| 2026-05-07 13:53 | 60.20332 | 11.41204 | 8698 ft | 309 kts | 357° |
| 2026-05-07 13:53 | 60.22473 | 11.41117 | 8297 ft | 305 kts | 357° |
| 2026-05-07 13:53 | 60.24583 | 11.41027 | 7902 ft | 302 kts | 357° |
| 2026-05-07 13:53 | 60.26678 | 11.40935 | 7509 ft | 299 kts | 358° |
| 2026-05-07 13:54 | 60.28747 | 11.40845 | 7123 ft | 295 kts | 357° |
| 2026-05-07 13:54 | 60.30787 | 11.40762 | 6741 ft | 292 kts | 358° |
| 2026-05-07 13:54 | 60.32806 | 11.40680 | 6360 ft | 289 kts | 358° |
| 2026-05-07 13:54 | 60.34804 | 11.40593 | 5956 ft | 285 kts | 358° |
| 2026-05-07 13:55 | 60.36776 | 11.40507 | 5553 ft | 282 kts | 358° |
| 2026-05-07 13:55 | 60.38707 | 11.40131 | 5161 ft | 276 kts | 340° |
| 2026-05-07 13:55 | 60.40251 | 11.38143 | 5009 ft | 263 kts | 310° |
| 2026-05-07 13:55 | 60.41144 | 11.35077 | 5002 ft | 246 kts | 288° |
| 2026-05-07 13:56 | 60.41416 | 11.31804 | 4999 ft | 229 kts | 268° |
| 2026-05-07 13:56 | 60.41152 | 11.28732 | 5003 ft | 215 kts | 250° |
| 2026-05-07 13:56 | 60.40468 | 11.26117 | 4903 ft | 208 kts | 233° |
| 2026-05-07 13:56 | 60.39456 | 11.24093 | 4717 ft | 203 kts | 216° |
| 2026-05-07 13:57 | 60.38214 | 11.22791 | 4463 ft | 200 kts | 199° |
| 2026-05-07 13:57 | 60.36889 | 11.22011 | 4203 ft | 198 kts | 198° |
| 2026-05-07 13:57 | 60.35567 | 11.21235 | 3916 ft | 197 kts | 197° |
| 2026-05-07 13:57 | 60.34252 | 11.20467 | 3663 ft | 197 kts | 197° |
| 2026-05-07 13:58 | 60.32937 | 11.19698 | 3395 ft | 196 kts | 197° |
| 2026-05-07 13:58 | 60.31633 | 11.18937 | 3118 ft | 195 kts | 197° |
| 2026-05-07 13:58 | 60.30334 | 11.18181 | 2863 ft | 192 kts | 198° |
| 2026-05-07 13:58 | 60.29089 | 11.17457 | 2598 ft | 181 kts | 197° |
| 2026-05-07 13:59 | 60.27918 | 11.16776 | 2371 ft | 170 kts | 197° |
| 2026-05-07 13:59 | 60.26832 | 11.16144 | 2139 ft | 156 kts | 197° |
| 2026-05-07 13:59 | 60.25826 | 11.15559 | 1921 ft | 146 kts | 197° |
| 2026-05-07 13:59 | 60.24866 | 11.15001 | 1728 ft | 142 kts | 197° |
| 2026-05-07 14:00 | 60.23923 | 11.14454 | 1519 ft | 141 kts | 197° |
| 2026-05-07 14:00 | 60.22979 | 11.13906 | 1318 ft | 141 kts | 197° |
| 2026-05-07 14:00 | 60.22033 | 11.13358 | 1116 ft | 143 kts | 197° |
| 2026-05-07 14:00 | 60.21073 | 11.12800 | 943 ft | 144 kts | 197° |
| 2026-05-07 14:01 | 60.20129 | 11.12248 | 767 ft | 139 kts | 196° |
| 2026-05-07 14:01 | 60.19239 | 11.11743 | 687 ft | 122 kts | 195° |
| 2026-05-07 14:01 | 60.18600 | 11.11370 | 681 ft | 58 kts | 197° |
| 2026-05-07 14:01 | 60.18441 | 11.11202 | 682 ft | 18 kts | 258° |
| 2026-05-07 14:02 | 60.18441 | 11.11035 | 682 ft | 10 kts | 282° |
| 2026-05-07 14:02 | 60.18443 | 11.11018 | 680 ft | 0 kts | 282° |
| 2026-05-07 14:03 | 60.18454 | 11.10926 | 683 ft | 14 kts | 282° |
| 2026-05-07 14:03 | 60.18509 | 11.10765 | 683 ft | 14 kts | 356° |
| 2026-05-07 14:03 | 60.18599 | 11.10804 | 683 ft | 12 kts | 15° |
| 2026-05-07 14:03 | 60.18703 | 11.10868 | 684 ft | 21 kts | 18° |
| 2026-05-07 14:04 | 60.18874 | 11.10973 | 684 ft | 28 kts | 16° |
| 2026-05-07 14:04 | 60.19063 | 11.11083 | 682 ft | 29 kts | 15° |
| 2026-05-07 14:04 | 60.19267 | 11.11191 | 683 ft | 31 kts | 16° |
| 2026-05-07 14:04 | 60.19459 | 11.11289 | 684 ft | 24 kts | 356° |
| 2026-05-07 14:05 | 60.19512 | 11.11072 | 681 ft | 18 kts | 286° |
| 2026-05-07 14:05 | 60.19556 | 11.10800 | 682 ft | 22 kts | 287° |
| 2026-05-07 14:05 | 60.19599 | 11.10496 | 679 ft | 19 kts | 285° |
| 2026-05-07 14:05 | 60.19673 | 11.10447 | 682 ft | 11 kts | 5° |
| 2026-05-07 14:06 | 60.19703 | 11.10370 | 682 ft | 6 kts | 298° |
| 2026-05-07 14:06 | 60.19715 | 11.10295 | 680 ft | 5 kts | 284° |
| 2026-05-07 14:06 | 60.19720 | 11.10258 | 682 ft | 0 kts | 285° |
| 2026-05-07 14:06 | 60.19720 | 11.10256 | 682 ft | 0 kts | 285° |
| 2026-05-07 14:07 | 60.19720 | 11.10255 | 682 ft | 0 kts | 285° |
| 2026-05-07 14:07 | 60.19721 | 11.10249 | 682 ft | 0 kts | 285° |